sensor_id;sensor_type;location;lat;lon;timestamp;P1;durP1;ratioP1;P2;durP2;ratioP2
74753;SDS011;63271;53.340;-6.260;2024-03-08T07:02:11;7.70;;;3.05;;
74753;SDS011;63271;53.340;-6.260;2024-03-08T07:04:41;6.55;;;3.08;;
74753;SDS011;63271;53.340;-6.260;2024-03-08T07:07:07;6.43;;;2.83;;
74753;SDS011;63271;53.340;-6.260;2024-03-08T07:09:38;7.90;;;2.75;;
74753;SDS011;63271;53.340;-6.260;2024-03-08T07:12:07;9.27;;;2.83;;
74753;SDS011;63271;53.340;-6.260;2024-03-08T07:14:36;8.50;;;2.80;;
74753;SDS011;63271;53.340;-6.260;2024-03-08T07:17:08;7.35;;;2.97;;
74753;SDS011;63271;53.340;-6.260;2024-03-08T07:19:36;11.38;;;2.80;;
74753;SDS011;63271;53.340;-6.260;2024-03-08T07:22:05;7.20;;;3.10;;
74753;SDS011;63271;53.340;-6.260;2024-03-08T07:24:34;5.32;;;2.58;;
74753;SDS011;63271;53.340;-6.260;2024-03-08T07:27:20;6.93;;;3.10;;
74753;SDS011;63271;53.340;-6.260;2024-03-08T07:29:46;7.03;;;2.88;;
74753;SDS011;63271;53.340;-6.260;2024-03-08T07:32:11;6.50;;;3.20;;
74753;SDS011;63271;53.340;-6.260;2024-03-08T07:34:49;9.43;;;2.88;;
74753;SDS011;63271;53.340;-6.260;2024-03-08T07:37:17;7.13;;;3.15;;
74753;SDS011;63271;53.340;-6.260;2024-03-08T07:39:44;8.73;;;2.88;;
74753;SDS011;63271;53.340;-6.260;2024-03-08T07:42:11;7.10;;;2.80;;
74753;SDS011;63271;53.340;-6.260;2024-03-08T07:44:37;4.50;;;2.72;;
74753;SDS011;63271;53.340;-6.260;2024-03-08T07:47:03;11.25;;;2.83;;
74753;SDS011;63271;53.340;-6.260;2024-03-08T07:49:29;7.57;;;3.10;;
74753;SDS011;63271;53.340;-6.260;2024-03-08T07:51:57;9.38;;;3.15;;
74753;SDS011;63271;53.340;-6.260;2024-03-08T07:54:23;7.25;;;3.25;;
74753;SDS011;63271;53.340;-6.260;2024-03-08T07:56:51;7.55;;;2.65;;
74753;SDS011;63271;53.340;-6.260;2024-03-08T07:59:22;4.57;;;2.42;;
74753;SDS011;63271;53.340;-6.260;2024-03-08T08:01:47;5.97;;;2.63;;
74753;SDS011;63271;53.340;-6.260;2024-03-08T08:04:13;6.00;;;2.75;;
74753;SDS011;63271;53.340;-6.260;2024-03-08T08:06:43;4.20;;;2.40;;
74753;SDS011;63271;53.340;-6.260;2024-03-08T08:09:08;6.57;;;2.83;;
74753;SDS011;63271;53.340;-6.260;2024-03-08T08:14:08;4.25;;;2.47;;
74753;SDS011;63271;53.340;-6.260;2024-03-08T08:16:34;5.22;;;2.92;;
74753;SDS011;63271;53.340;-6.260;2024-03-08T08:19:02;8.98;;;2.75;;
74753;SDS011;63271;53.340;-6.260;2024-03-08T08:21:33;4.90;;;2.40;;
74753;SDS011;63271;53.340;-6.260;2024-03-08T08:23:59;7.20;;;2.70;;
74753;SDS011;63271;53.340;-6.260;2024-03-08T08:26:27;5.88;;;2.63;;
74753;SDS011;63271;53.340;-6.260;2024-03-08T08:29:02;6.35;;;2.67;;
74753;SDS011;63271;53.340;-6.260;2024-03-08T08:31:32;7.10;;;2.72;;
74753;SDS011;63271;53.340;-6.260;2024-03-08T08:33:58;6.25;;;2.63;;
74753;SDS011;63271;53.340;-6.260;2024-03-08T08:36:24;7.05;;;2.67;;
74753;SDS011;63271;53.340;-6.260;2024-03-08T08:38:52;5.65;;;2.78;;
74753;SDS011;63271;53.340;-6.260;2024-03-08T08:41:25;7.45;;;2.65;;
74753;SDS011;63271;53.340;-6.260;2024-03-08T08:43:54;5.18;;;2.50;;
74753;SDS011;63271;53.340;-6.260;2024-03-08T08:46:21;6.15;;;2.97;;
74753;SDS011;63271;53.340;-6.260;2024-03-08T08:48:49;5.78;;;3.00;;
74753;SDS011;63271;53.340;-6.260;2024-03-08T08:51:15;6.65;;;2.72;;
74753;SDS011;63271;53.340;-6.260;2024-03-08T08:53:40;5.95;;;2.40;;
74753;SDS011;63271;53.340;-6.260;2024-03-08T08:56:14;7.55;;;2.95;;
74753;SDS011;63271;53.340;-6.260;2024-03-08T08:58:41;6.15;;;2.88;;
74753;SDS011;63271;53.340;-6.260;2024-03-08T09:01:08;8.20;;;3.65;;
74753;SDS011;63271;53.340;-6.260;2024-03-08T09:03:35;6.68;;;3.42;;
74753;SDS011;63271;53.340;-6.260;2024-03-08T09:06:06;5.43;;;2.70;;
74753;SDS011;63271;53.340;-6.260;2024-03-08T09:08:38;8.13;;;3.85;;
74753;SDS011;63271;53.340;-6.260;2024-03-08T09:11:04;8.02;;;3.05;;
74753;SDS011;63271;53.340;-6.260;2024-03-08T09:13:30;6.70;;;3.17;;
74753;SDS011;63271;53.340;-6.260;2024-03-08T09:16:01;9.63;;;3.58;;
74753;SDS011;63271;53.340;-6.260;2024-03-08T09:18:32;9.55;;;3.47;;
74753;SDS011;63271;53.340;-6.260;2024-03-08T09:21:02;10.75;;;3.55;;
74753;SDS011;63271;53.340;-6.260;2024-03-08T09:23:30;6.55;;;2.88;;
74753;SDS011;63271;53.340;-6.260;2024-03-08T09:26:00;5.82;;;2.63;;
74753;SDS011;63271;53.340;-6.260;2024-03-08T09:30:54;5.75;;;2.63;;
74753;SDS011;63271;53.340;-6.260;2024-03-08T09:33:26;10.10;;;3.33;;
74753;SDS011;63271;53.340;-6.260;2024-03-08T09:35:54;7.70;;;3.15;;
74753;SDS011;63271;53.340;-6.260;2024-03-08T09:38:19;9.23;;;3.50;;
74753;SDS011;63271;53.340;-6.260;2024-03-08T09:40:45;10.60;;;3.85;;
74753;SDS011;63271;53.340;-6.260;2024-03-08T09:43:13;9.25;;;3.40;;
74753;SDS011;63271;53.340;-6.260;2024-03-08T09:45:39;7.65;;;3.67;;
74753;SDS011;63271;53.340;-6.260;2024-03-08T09:48:07;7.90;;;3.42;;
74753;SDS011;63271;53.340;-6.260;2024-03-08T09:50:39;6.97;;;3.28;;
74753;SDS011;63271;53.340;-6.260;2024-03-08T09:55:38;7.72;;;3.88;;
74753;SDS011;63271;53.340;-6.260;2024-03-08T09:58:11;9.27;;;3.95;;
74753;SDS011;63271;53.340;-6.260;2024-03-08T10:01:01;8.80;;;3.53;;
74753;SDS011;63271;53.340;-6.260;2024-03-08T10:03:29;7.93;;;3.28;;
74753;SDS011;63271;53.340;-6.260;2024-03-08T10:05:58;7.32;;;3.58;;
74753;SDS011;63271;53.340;-6.260;2024-03-08T10:08:27;9.85;;;3.85;;
74753;SDS011;63271;53.340;-6.260;2024-03-08T10:10:58;9.40;;;3.88;;
74753;SDS011;63271;53.340;-6.260;2024-03-08T10:13:24;8.70;;;3.70;;
74753;SDS011;63271;53.340;-6.260;2024-03-08T10:15:55;9.68;;;3.70;;
74753;SDS011;63271;53.340;-6.260;2024-03-08T10:18:23;8.52;;;3.47;;
74753;SDS011;63271;53.340;-6.260;2024-03-08T10:21:07;8.05;;;3.53;;
74753;SDS011;63271;53.340;-6.260;2024-03-08T10:23:35;9.13;;;4.07;;
74753;SDS011;63271;53.340;-6.260;2024-03-08T10:26:23;10.95;;;3.45;;
74753;SDS011;63271;53.340;-6.260;2024-03-08T10:28:50;8.73;;;3.13;;
74753;SDS011;63271;53.340;-6.260;2024-03-08T10:31:18;9.30;;;3.85;;
74753;SDS011;63271;53.340;-6.260;2024-03-08T10:33:44;12.43;;;3.40;;
74753;SDS011;63271;53.340;-6.260;2024-03-08T10:36:11;10.77;;;3.60;;
74753;SDS011;63271;53.340;-6.260;2024-03-08T10:38:38;10.88;;;3.83;;
74753;SDS011;63271;53.340;-6.260;2024-03-08T10:41:12;9.07;;;3.90;;
74753;SDS011;63271;53.340;-6.260;2024-03-08T10:43:46;9.55;;;4.20;;
74753;SDS011;63271;53.340;-6.260;2024-03-08T10:49:00;11.15;;;3.97;;
74753;SDS011;63271;53.340;-6.260;2024-03-08T10:51:28;7.40;;;3.40;;
74753;SDS011;63271;53.340;-6.260;2024-03-08T10:53:54;8.57;;;3.90;;
74753;SDS011;63271;53.340;-6.260;2024-03-08T10:56:22;14.38;;;4.00;;
74753;SDS011;63271;53.340;-6.260;2024-03-08T10:58:47;11.70;;;3.50;;
74753;SDS011;63271;53.340;-6.260;2024-03-08T11:01:13;9.02;;;3.60;;
74753;SDS011;63271;53.340;-6.260;2024-03-08T11:06:07;7.85;;;3.20;;
74753;SDS011;63271;53.340;-6.260;2024-03-08T11:08:37;8.20;;;3.95;;
74753;SDS011;63271;53.340;-6.260;2024-03-08T11:11:04;23.70;;;3.65;;
74753;SDS011;63271;53.340;-6.260;2024-03-08T11:13:42;13.73;;;3.35;;
74753;SDS011;63271;53.340;-6.260;2024-03-08T11:16:11;6.65;;;2.75;;
74753;SDS011;63271;53.340;-6.260;2024-03-08T11:19:05;11.23;;;3.65;;
74753;SDS011;63271;53.340;-6.260;2024-03-08T11:21:35;10.75;;;4.30;;
74753;SDS011;63271;53.340;-6.260;2024-03-08T11:24:11;10.35;;;4.20;;
74753;SDS011;63271;53.340;-6.260;2024-03-08T11:26:38;7.93;;;3.72;;
74753;SDS011;63271;53.340;-6.260;2024-03-08T11:32:05;12.65;;;3.17;;
74753;SDS011;63271;53.340;-6.260;2024-03-08T11:34:34;9.57;;;3.63;;
74753;SDS011;63271;53.340;-6.260;2024-03-08T11:37:00;9.88;;;3.28;;
74753;SDS011;63271;53.340;-6.260;2024-03-08T11:39:26;7.22;;;3.28;;
74753;SDS011;63271;53.340;-6.260;2024-03-08T11:41:52;7.68;;;3.50;;
74753;SDS011;63271;53.340;-6.260;2024-03-08T11:44:18;8.52;;;3.33;;
74753;SDS011;63271;53.340;-6.260;2024-03-08T11:46:47;9.80;;;2.92;;
74753;SDS011;63271;53.340;-6.260;2024-03-08T11:49:13;11.77;;;3.85;;
74753;SDS011;63271;53.340;-6.260;2024-03-08T11:51:42;7.72;;;3.22;;
74753;SDS011;63271;53.340;-6.260;2024-03-08T11:54:12;10.25;;;3.25;;
74753;SDS011;63271;53.340;-6.260;2024-03-08T11:56:40;8.57;;;3.25;;
74753;SDS011;63271;53.340;-6.260;2024-03-08T11:59:10;9.07;;;3.47;;
74753;SDS011;63271;53.340;-6.260;2024-03-08T12:01:38;5.78;;;3.17;;
74753;SDS011;63271;53.340;-6.260;2024-03-08T12:04:24;8.60;;;3.30;;
74753;SDS011;63271;53.340;-6.260;2024-03-08T12:06:50;8.77;;;3.65;;
74753;SDS011;63271;53.340;-6.260;2024-03-08T12:09:15;5.97;;;3.17;;
74753;SDS011;63271;53.340;-6.260;2024-03-08T12:11:41;8.60;;;3.58;;
74753;SDS011;63271;53.340;-6.260;2024-03-08T12:14:09;7.97;;;3.30;;
74753;SDS011;63271;53.340;-6.260;2024-03-08T12:16:38;8.73;;;3.78;;
74753;SDS011;63271;53.340;-6.260;2024-03-08T12:19:06;9.35;;;3.40;;
74753;SDS011;63271;53.340;-6.260;2024-03-08T12:21:35;7.65;;;3.33;;
74753;SDS011;63271;53.340;-6.260;2024-03-08T12:24:10;10.25;;;3.78;;
74753;SDS011;63271;53.340;-6.260;2024-03-08T12:26:38;10.48;;;3.33;;
74753;SDS011;63271;53.340;-6.260;2024-03-08T12:29:18;7.57;;;3.55;;
74753;SDS011;63271;53.340;-6.260;2024-03-08T12:31:50;12.98;;;3.20;;
74753;SDS011;63271;53.340;-6.260;2024-03-08T12:34:19;13.15;;;4.00;;
74753;SDS011;63271;53.340;-6.260;2024-03-08T12:36:48;11.65;;;3.50;;
74753;SDS011;63271;53.340;-6.260;2024-03-08T12:39:15;7.63;;;3.33;;
74753;SDS011;63271;53.340;-6.260;2024-03-08T12:41:51;9.15;;;3.35;;
74753;SDS011;63271;53.340;-6.260;2024-03-08T12:44:17;10.73;;;3.53;;
74753;SDS011;63271;53.340;-6.260;2024-03-08T12:46:49;5.72;;;3.00;;
74753;SDS011;63271;53.340;-6.260;2024-03-08T12:49:16;10.35;;;3.60;;
74753;SDS011;63271;53.340;-6.260;2024-03-08T12:51:47;8.52;;;3.45;;
74753;SDS011;63271;53.340;-6.260;2024-03-08T12:54:13;16.73;;;4.15;;
74753;SDS011;63271;53.340;-6.260;2024-03-08T12:56:41;11.00;;;3.90;;
74753;SDS011;63271;53.340;-6.260;2024-03-08T12:59:07;7.32;;;3.40;;
74753;SDS011;63271;53.340;-6.260;2024-03-08T13:01:34;9.80;;;3.67;;
74753;SDS011;63271;53.340;-6.260;2024-03-08T13:04:03;7.93;;;4.00;;
74753;SDS011;63271;53.340;-6.260;2024-03-08T13:06:39;12.18;;;4.03;;
74753;SDS011;63271;53.340;-6.260;2024-03-08T13:09:12;11.40;;;4.15;;
74753;SDS011;63271;53.340;-6.260;2024-03-08T13:11:44;8.05;;;3.88;;
74753;SDS011;63271;53.340;-6.260;2024-03-08T13:14:13;10.07;;;4.45;;
74753;SDS011;63271;53.340;-6.260;2024-03-08T13:17:02;13.45;;;3.90;;
74753;SDS011;63271;53.340;-6.260;2024-03-08T13:19:36;8.13;;;3.60;;
74753;SDS011;63271;53.340;-6.260;2024-03-08T13:22:12;8.50;;;4.05;;
74753;SDS011;63271;53.340;-6.260;2024-03-08T13:24:39;7.68;;;3.65;;
74753;SDS011;63271;53.340;-6.260;2024-03-08T13:27:06;10.68;;;3.97;;
74753;SDS011;63271;53.340;-6.260;2024-03-08T13:29:44;11.68;;;4.68;;
74753;SDS011;63271;53.340;-6.260;2024-03-08T13:32:11;7.80;;;3.83;;
74753;SDS011;63271;53.340;-6.260;2024-03-08T13:34:40;6.95;;;3.35;;
74753;SDS011;63271;53.340;-6.260;2024-03-08T13:37:06;8.20;;;4.07;;
74753;SDS011;63271;53.340;-6.260;2024-03-08T13:39:35;8.85;;;3.78;;
74753;SDS011;63271;53.340;-6.260;2024-03-08T13:42:11;9.73;;;4.18;;
74753;SDS011;63271;53.340;-6.260;2024-03-08T13:44:44;8.98;;;3.85;;
74753;SDS011;63271;53.340;-6.260;2024-03-08T13:47:11;7.35;;;3.70;;
74753;SDS011;63271;53.340;-6.260;2024-03-08T13:49:38;9.55;;;3.78;;
74753;SDS011;63271;53.340;-6.260;2024-03-08T13:52:04;8.20;;;3.90;;
74753;SDS011;63271;53.340;-6.260;2024-03-08T13:54:30;8.20;;;4.15;;
74753;SDS011;63271;53.340;-6.260;2024-03-08T13:56:56;16.25;;;4.20;;
74753;SDS011;63271;53.340;-6.260;2024-03-08T13:59:23;10.10;;;3.88;;
74753;SDS011;63271;53.340;-6.260;2024-03-08T14:01:49;8.45;;;4.18;;
74753;SDS011;63271;53.340;-6.260;2024-03-08T14:04:16;15.40;;;4.80;;
74753;SDS011;63271;53.340;-6.260;2024-03-08T14:06:42;9.18;;;3.90;;
74753;SDS011;63271;53.340;-6.260;2024-03-08T14:09:10;14.35;;;4.60;;
74753;SDS011;63271;53.340;-6.260;2024-03-08T14:11:42;8.63;;;4.03;;
74753;SDS011;63271;53.340;-6.260;2024-03-08T14:14:09;11.18;;;3.90;;
74753;SDS011;63271;53.340;-6.260;2024-03-08T14:16:40;12.95;;;4.60;;
74753;SDS011;63271;53.340;-6.260;2024-03-08T14:19:08;7.13;;;3.45;;
74753;SDS011;63271;53.340;-6.260;2024-03-08T14:21:35;7.90;;;3.70;;
74753;SDS011;63271;53.340;-6.260;2024-03-08T14:24:04;9.50;;;3.85;;
74753;SDS011;63271;53.340;-6.260;2024-03-08T14:26:34;5.85;;;3.47;;
74753;SDS011;63271;53.340;-6.260;2024-03-08T14:28:59;9.75;;;3.80;;
74753;SDS011;63271;53.340;-6.260;2024-03-08T14:31:27;8.52;;;3.90;;
74753;SDS011;63271;53.340;-6.260;2024-03-08T14:33:53;8.73;;;3.45;;
74753;SDS011;63271;53.340;-6.260;2024-03-08T14:36:20;12.40;;;4.80;;
74753;SDS011;63271;53.340;-6.260;2024-03-08T14:38:54;10.43;;;4.18;;
74753;SDS011;63271;53.340;-6.260;2024-03-08T14:41:20;10.65;;;3.83;;
74753;SDS011;63271;53.340;-6.260;2024-03-08T14:43:52;8.35;;;3.95;;
74753;SDS011;63271;53.340;-6.260;2024-03-08T14:46:24;7.90;;;4.28;;
74753;SDS011;63271;53.340;-6.260;2024-03-08T14:48:50;7.97;;;4.10;;
74753;SDS011;63271;53.340;-6.260;2024-03-08T14:51:19;10.18;;;3.70;;
74753;SDS011;63271;53.340;-6.260;2024-03-08T14:53:53;7.72;;;4.22;;
74753;SDS011;63271;53.340;-6.260;2024-03-08T14:56:19;13.57;;;4.13;;
74753;SDS011;63271;53.340;-6.260;2024-03-08T14:58:47;9.45;;;4.35;;
74753;SDS011;63271;53.340;-6.260;2024-03-08T15:01:16;8.38;;;3.90;;
74753;SDS011;63271;53.340;-6.260;2024-03-08T15:03:49;10.90;;;3.97;;
74753;SDS011;63271;53.340;-6.260;2024-03-08T15:06:15;12.02;;;4.43;;
74753;SDS011;63271;53.340;-6.260;2024-03-08T15:08:45;12.32;;;4.70;;
74753;SDS011;63271;53.340;-6.260;2024-03-08T15:11:11;8.45;;;3.85;;
74753;SDS011;63271;53.340;-6.260;2024-03-08T15:13:36;9.13;;;4.05;;
74753;SDS011;63271;53.340;-6.260;2024-03-08T15:16:08;9.55;;;4.15;;
74753;SDS011;63271;53.340;-6.260;2024-03-08T15:18:34;11.85;;;3.90;;
74753;SDS011;63271;53.340;-6.260;2024-03-08T15:21:04;9.38;;;3.83;;
74753;SDS011;63271;53.340;-6.260;2024-03-08T15:23:36;7.90;;;4.30;;
74753;SDS011;63271;53.340;-6.260;2024-03-08T15:26:07;10.10;;;3.80;;
74753;SDS011;63271;53.340;-6.260;2024-03-08T15:28:33;13.95;;;4.35;;
74753;SDS011;63271;53.340;-6.260;2024-03-08T15:31:05;19.52;;;4.50;;
74753;SDS011;63271;53.340;-6.260;2024-03-08T15:33:32;9.18;;;3.92;;
74753;SDS011;63271;53.340;-6.260;2024-03-08T15:36:06;10.20;;;4.10;;
74753;SDS011;63271;53.340;-6.260;2024-03-08T15:39:00;9.25;;;4.18;;
74753;SDS011;63271;53.340;-6.260;2024-03-08T15:41:26;8.57;;;3.95;;
74753;SDS011;63271;53.340;-6.260;2024-03-08T15:43:55;9.80;;;4.40;;
74753;SDS011;63271;53.340;-6.260;2024-03-08T15:46:21;8.18;;;3.63;;
74753;SDS011;63271;53.340;-6.260;2024-03-08T15:48:49;8.55;;;3.78;;
74753;SDS011;63271;53.340;-6.260;2024-03-08T15:51:16;9.60;;;3.60;;
74753;SDS011;63271;53.340;-6.260;2024-03-08T15:53:47;8.75;;;3.60;;
74753;SDS011;63271;53.340;-6.260;2024-03-08T15:56:18;8.13;;;4.13;;
74753;SDS011;63271;53.340;-6.260;2024-03-08T15:58:51;9.75;;;3.80;;
74753;SDS011;63271;53.340;-6.260;2024-03-08T16:01:19;10.68;;;4.30;;
74753;SDS011;63271;53.340;-6.260;2024-03-08T16:03:50;10.48;;;4.07;;
74753;SDS011;63271;53.340;-6.260;2024-03-08T16:06:19;11.55;;;3.67;;
74753;SDS011;63271;53.340;-6.260;2024-03-08T16:08:46;9.15;;;4.25;;
74753;SDS011;63271;53.340;-6.260;2024-03-08T16:11:16;7.40;;;4.10;;
74753;SDS011;63271;53.340;-6.260;2024-03-08T16:13:46;7.70;;;4.03;;
74753;SDS011;63271;53.340;-6.260;2024-03-08T16:16:14;10.18;;;4.20;;
74753;SDS011;63271;53.340;-6.260;2024-03-08T16:18:45;10.63;;;3.67;;
74753;SDS011;63271;53.340;-6.260;2024-03-08T16:21:14;10.20;;;3.88;;
74753;SDS011;63271;53.340;-6.260;2024-03-08T16:23:41;8.75;;;3.97;;
74753;SDS011;63271;53.340;-6.260;2024-03-08T16:26:08;7.88;;;4.07;;
74753;SDS011;63271;53.340;-6.260;2024-03-08T16:28:37;8.88;;;3.70;;
74753;SDS011;63271;53.340;-6.260;2024-03-08T16:31:06;6.80;;;3.10;;
74753;SDS011;63271;53.340;-6.260;2024-03-08T16:33:38;8.75;;;3.85;;
74753;SDS011;63271;53.340;-6.260;2024-03-08T16:36:09;8.30;;;3.72;;
74753;SDS011;63271;53.340;-6.260;2024-03-08T16:38:36;9.35;;;4.00;;
74753;SDS011;63271;53.340;-6.260;2024-03-08T16:41:03;7.47;;;3.80;;
74753;SDS011;63271;53.340;-6.260;2024-03-08T16:43:34;9.18;;;3.75;;
74753;SDS011;63271;53.340;-6.260;2024-03-08T16:46:15;10.35;;;3.35;;
74753;SDS011;63271;53.340;-6.260;2024-03-08T16:48:41;12.00;;;4.13;;
74753;SDS011;63271;53.340;-6.260;2024-03-08T16:51:10;8.15;;;3.53;;
74753;SDS011;63271;53.340;-6.260;2024-03-08T16:53:38;9.68;;;3.90;;
74753;SDS011;63271;53.340;-6.260;2024-03-08T16:56:10;7.35;;;3.45;;
74753;SDS011;63271;53.340;-6.260;2024-03-08T16:58:37;6.78;;;3.58;;
74753;SDS011;63271;53.340;-6.260;2024-03-08T17:01:05;8.68;;;3.80;;
74753;SDS011;63271;53.340;-6.260;2024-03-08T17:03:41;8.38;;;3.47;;
74753;SDS011;63271;53.340;-6.260;2024-03-08T17:06:18;8.05;;;3.60;;
74753;SDS011;63271;53.340;-6.260;2024-03-08T17:08:46;9.35;;;3.80;;
74753;SDS011;63271;53.340;-6.260;2024-03-08T17:11:11;9.52;;;3.83;;
74753;SDS011;63271;53.340;-6.260;2024-03-08T17:13:40;9.52;;;3.80;;
74753;SDS011;63271;53.340;-6.260;2024-03-08T17:16:16;8.73;;;3.58;;
74753;SDS011;63271;53.340;-6.260;2024-03-08T17:19:01;9.27;;;3.88;;
74753;SDS011;63271;53.340;-6.260;2024-03-08T17:21:27;8.27;;;3.40;;
74753;SDS011;63271;53.340;-6.260;2024-03-08T17:23:54;10.27;;;4.07;;
74753;SDS011;63271;53.340;-6.260;2024-03-08T17:26:21;9.55;;;4.00;;
74753;SDS011;63271;53.340;-6.260;2024-03-08T17:28:50;8.35;;;3.30;;
74753;SDS011;63271;53.340;-6.260;2024-03-08T17:31:18;7.40;;;3.40;;
74753;SDS011;63271;53.340;-6.260;2024-03-08T17:33:46;8.57;;;3.75;;
74753;SDS011;63271;53.340;-6.260;2024-03-08T17:36:15;11.15;;;4.30;;
74753;SDS011;63271;53.340;-6.260;2024-03-08T17:38:44;8.85;;;3.83;;
74753;SDS011;63271;53.340;-6.260;2024-03-08T17:41:12;11.27;;;3.88;;
74753;SDS011;63271;53.340;-6.260;2024-03-08T17:43:47;9.48;;;4.00;;
74753;SDS011;63271;53.340;-6.260;2024-03-08T17:46:15;9.10;;;3.75;;
74753;SDS011;63271;53.340;-6.260;2024-03-08T17:48:41;10.57;;;4.07;;
74753;SDS011;63271;53.340;-6.260;2024-03-08T17:51:15;9.70;;;4.07;;
74753;SDS011;63271;53.340;-6.260;2024-03-08T17:53:41;11.27;;;3.47;;
74753;SDS011;63271;53.340;-6.260;2024-03-08T17:56:14;8.45;;;3.90;;
74753;SDS011;63271;53.340;-6.260;2024-03-08T17:58:40;10.35;;;4.13;;
74753;SDS011;63271;53.340;-6.260;2024-03-08T18:01:08;10.32;;;4.10;;
74753;SDS011;63271;53.340;-6.260;2024-03-08T18:03:44;13.45;;;4.30;;
74753;SDS011;63271;53.340;-6.260;2024-03-08T18:06:10;11.25;;;4.25;;
74753;SDS011;63271;53.340;-6.260;2024-03-08T18:08:35;8.70;;;3.88;;
74753;SDS011;63271;53.340;-6.260;2024-03-08T18:11:04;9.73;;;3.90;;
74753;SDS011;63271;53.340;-6.260;2024-03-08T18:13:33;8.80;;;4.25;;
74753;SDS011;63271;53.340;-6.260;2024-03-08T18:16:01;10.93;;;4.63;;
74753;SDS011;63271;53.340;-6.260;2024-03-08T18:18:29;11.38;;;3.88;;
74753;SDS011;63271;53.340;-6.260;2024-03-08T18:20:57;11.25;;;4.30;;
74753;SDS011;63271;53.340;-6.260;2024-03-08T18:23:43;9.25;;;3.90;;
74753;SDS011;63271;53.340;-6.260;2024-03-08T18:26:10;8.73;;;3.60;;
74753;SDS011;63271;53.340;-6.260;2024-03-08T18:28:36;11.23;;;3.83;;
74753;SDS011;63271;53.340;-6.260;2024-03-08T18:31:09;11.65;;;4.15;;
74753;SDS011;63271;53.340;-6.260;2024-03-08T18:33:34;8.63;;;3.50;;
74753;SDS011;63271;53.340;-6.260;2024-03-08T18:36:02;7.97;;;3.70;;
74753;SDS011;63271;53.340;-6.260;2024-03-08T18:38:31;9.88;;;3.60;;
74753;SDS011;63271;53.340;-6.260;2024-03-08T18:41:03;13.50;;;4.05;;
74753;SDS011;63271;53.340;-6.260;2024-03-08T18:43:44;10.07;;;4.20;;
74753;SDS011;63271;53.340;-6.260;2024-03-08T18:46:10;8.95;;;4.35;;
74753;SDS011;63271;53.340;-6.260;2024-03-08T18:48:39;11.55;;;4.28;;
74753;SDS011;63271;53.340;-6.260;2024-03-08T18:51:05;8.70;;;3.78;;
74753;SDS011;63271;53.340;-6.260;2024-03-08T18:53:30;9.63;;;4.07;;
74753;SDS011;63271;53.340;-6.260;2024-03-08T18:55:56;12.02;;;4.82;;
74753;SDS011;63271;53.340;-6.260;2024-03-08T18:58:26;10.57;;;4.20;;
74753;SDS011;63271;53.340;-6.260;2024-03-08T19:00:56;11.27;;;4.40;;
74753;SDS011;63271;53.340;-6.260;2024-03-08T19:03:21;8.93;;;4.15;;
74753;SDS011;63271;53.340;-6.260;2024-03-08T19:05:53;9.82;;;3.65;;
74753;SDS011;63271;53.340;-6.260;2024-03-08T19:08:19;10.90;;;4.35;;
74753;SDS011;63271;53.340;-6.260;2024-03-08T19:10:49;9.73;;;4.70;;
74753;SDS011;63271;53.340;-6.260;2024-03-08T19:13:20;9.45;;;4.00;;
74753;SDS011;63271;53.340;-6.260;2024-03-08T19:15:51;10.40;;;4.13;;
74753;SDS011;63271;53.340;-6.260;2024-03-08T19:18:25;9.23;;;4.30;;
74753;SDS011;63271;53.340;-6.260;2024-03-08T19:20:55;11.02;;;3.67;;
74753;SDS011;63271;53.340;-6.260;2024-03-08T19:23:25;7.60;;;3.80;;
74753;SDS011;63271;53.340;-6.260;2024-03-08T19:25:54;10.70;;;3.80;;
74753;SDS011;63271;53.340;-6.260;2024-03-08T19:31:06;10.48;;;4.28;;
74753;SDS011;63271;53.340;-6.260;2024-03-08T19:33:32;7.65;;;3.67;;
74753;SDS011;63271;53.340;-6.260;2024-03-08T19:35:57;10.45;;;4.20;;
74753;SDS011;63271;53.340;-6.260;2024-03-08T19:38:25;11.18;;;3.92;;
74753;SDS011;63271;53.340;-6.260;2024-03-08T19:40:56;9.05;;;4.10;;
74753;SDS011;63271;53.340;-6.260;2024-03-08T19:43:22;9.00;;;4.43;;
74753;SDS011;63271;53.340;-6.260;2024-03-08T19:45:52;9.60;;;4.45;;
74753;SDS011;63271;53.340;-6.260;2024-03-08T19:48:19;8.73;;;3.83;;
74753;SDS011;63271;53.340;-6.260;2024-03-08T19:50:45;12.00;;;4.43;;
74753;SDS011;63271;53.340;-6.260;2024-03-08T19:53:14;11.88;;;3.80;;
74753;SDS011;63271;53.340;-6.260;2024-03-08T19:55:40;14.20;;;4.30;;
74753;SDS011;63271;53.340;-6.260;2024-03-08T19:58:07;9.18;;;4.00;;
74753;SDS011;63271;53.340;-6.260;2024-03-08T20:00:35;12.80;;;4.28;;
